Time;durP1;ratioP1;P1;durP2;ratioP2;P2;SDS_P1;SDS_P2;PMS_P1;PMS_P2;Temp;Humidity;BMP_temperature;BMP_pressure;BME280_temperature;BME280_humidity;BME280_pressure;Samples;Min_cycle;Max_cycle;Signal;HPM_P1;HPM_P2
2022/12/31 00:00:58;;;;;;;123.15;71.78;;;;;;;12.40;77.55;99483.25;4966499;28;20059;-55
2022/12/31 00:03:48;;;;;;;127.60;71.47;;;;;;;12.47;76.77;99492.16;4965592;28;20108;-53
2022/12/31 00:06:37;;;;;;;129.52;73.68;;;;;;;12.42;77.10;99484.72;4964882;28;20084;-58
2022/12/31 00:09:19;;;;;;;121.57;70.72;;;;;;;12.34;76.76;99491.13;4946498;28;20446;-57
2022/12/31 00:12:08;;;;;;;126.43;72.93;;;;;;;12.42;76.70;99502.72;4949811;28;20051;-57
2022/12/31 00:14:50;;;;;;;132.90;77.60;;;;;;;12.44;76.14;99497.94;4966008;28;20126;-56
2022/12/31 00:17:47;;;;;;;126.13;72.43;;;;;;;12.53;75.97;99499.41;4963095;28;20047;-57
2022/12/31 00:20:29;;;;;;;123.50;72.95;;;;;;;12.41;76.34;99495.69;4939864;28;20486;-57
2022/12/31 00:23:18;;;;;;;127.25;72.43;;;;;;;12.41;76.81;99501.06;4956589;28;20050;-57
2022/12/31 00:26:04;;;;;;;125.57;70.25;;;;;;;12.46;76.07;99501.28;4965444;28;20059;-57
2022/12/31 00:28:54;;;;;;;128.20;72.63;;;;;;;12.36;76.57;99506.22;4965106;28;20059;-57
2022/12/31 00:31:37;;;;;;;132.50;70.75;;;;;;;12.44;76.36;99508.72;4964592;28;20050;-57
2022/12/31 00:34:26;;;;;;;120.43;68.93;;;;;;;12.40;77.06;99510.16;4947047;28;20066;-58
2022/12/31 00:37:08;;;;;;;127.97;68.85;;;;;;;12.49;76.51;99506.25;4945567;28;20066;-52
2022/12/31 00:39:57;;;;;;;123.90;68.63;;;;;;;12.52;75.94;99497.75;4964020;28;20055;-60
2022/12/31 00:42:39;;;;;;;121.63;71.05;;;;;;;12.56;75.58;99506.25;4963055;28;20650;-59
2022/12/31 00:45:28;;;;;;;121.03;70.97;;;;;;;12.48;75.76;99502.72;4960633;28;20162;-58
2022/12/31 00:48:10;;;;;;;118.28;71.25;;;;;;;12.45;75.86;99502.31;4961456;28;20054;-59
2022/12/31 00:51:03;;;;;;;128.30;72.45;;;;;;;12.56;75.09;99493.63;4962579;28;20066;-58
2022/12/31 00:53:45;;;;;;;133.63;73.43;;;;;;;12.48;75.75;99508.13;4963696;28;20051;-57
2022/12/31 00:56:36;;;;;;;131.38;71.97;;;;;;;12.38;75.56;99506.84;4944226;28;20055;-57
2022/12/31 00:59:18;;;;;;;122.30;72.35;;;;;;;12.31;75.83;99512.25;4963365;28;20058;-59
2022/12/31 01:02:07;;;;;;;125.20;70.93;;;;;;;12.34;75.88;99515.34;4962011;28;20043;-60
2022/12/31 01:04:49;;;;;;;125.55;70.40;;;;;;;12.34;75.71;99519.88;4962151;28;20593;-59
2022/12/31 01:07:38;;;;;;;118.40;68.75;;;;;;;12.30;75.75;99524.84;4962751;28;20061;-59
2022/12/31 01:11:17;;;;;;;122.35;66.55;;;;;;;12.29;75.74;99533.97;4962147;28;20061;-59
2022/12/31 01:13:29;;;;;;;113.53;64.82;;;;;;;12.25;76.06;99530.03;4928531;28;20074;-58
2022/12/31 01:16:13;;;;;;;123.97;68.90;;;;;;;12.22;76.00;99524.22;4946783;28;20125;-59
2022/12/31 01:19:12;;;;;;;130.50;67.60;;;;;;;12.31;76.14;99528.41;4964141;28;20138;-58
2022/12/31 01:22:01;;;;;;;127.97;69.97;;;;;;;12.22;75.83;99535.81;4961940;28;20166;-58
2022/12/31 01:24:50;;;;;;;125.22;70.57;;;;;;;12.23;75.93;99542.03;4960879;28;20132;-60
2022/12/31 01:27:45;;;;;;;127.03;72.25;;;;;;;12.27;75.57;99544.13;4960973;28;20492;-58
2022/12/31 01:30:20;;;;;;;129.35;71.57;;;;;;;12.16;76.16;99551.97;4962078;28;20065;-58
2022/12/31 01:33:09;;;;;;;136.50;76.53;;;;;;;12.20;75.73;99548.66;4966925;28;20066;-58
2022/12/31 01:35:58;;;;;;;122.28;72.70;;;;;;;12.09;76.34;99554.63;4963931;28;20058;-58
2022/12/31 01:38:54;;;;;;;128.18;73.57;;;;;;;12.09;75.77;99552.75;4962041;28;20065;-58
2022/12/31 01:41:33;;;;;;;123.60;73.07;;;;;;;12.01;76.41;99550.25;4960420;28;20051;-58
2022/12/31 01:44:25;;;;;;;128.95;74.90;;;;;;;12.08;76.53;99550.28;4961163;28;20054;-58
2022/12/31 01:47:23;;;;;;;138.02;76.57;;;;;;;12.17;75.76;99549.09;4963017;28;20120;-56
2022/12/31 01:50:34;;;;;;;129.13;76.05;;;;;;;12.05;76.64;99546.13;4970975;28;20042;-58
2022/12/31 01:53:10;;;;;;;;;;;;;;;12.17;75.18;99548.22;4960984;28;20059;-56
2022/12/31 01:56:06;;;;;;;134.13;76.03;;;;;;;12.07;75.69;99545.94;4962019;28;20503;-57
2022/12/31 01:58:46;;;;;;;136.65;76.20;;;;;;;11.82;75.99;99546.44;4961940;28;20070;-58
2022/12/31 02:01:37;;;;;;;140.63;75.72;;;;;;;11.92;76.43;99546.09;4961772;28;20154;-59
2022/12/31 02:04:21;;;;;;;133.13;77.13;;;;;;;11.94;76.50;99561.03;4961381;28;20046;-59
2022/12/31 02:07:18;;;;;;;127.30;75.00;;;;;;;11.88;76.28;99555.56;4962275;28;20639;-58
2022/12/31 02:09:53;;;;;;;127.35;72.13;;;;;;;11.91;76.38;99561.41;4961657;28;20628;-57
2022/12/31 02:12:43;;;;;;;128.90;75.13;;;;;;;11.76;76.70;99555.31;4963548;28;20133;-58
2022/12/31 02:15:34;;;;;;;125.80;72.28;;;;;;;11.86;76.88;99560.31;4963635;28;20069;-59
2022/12/31 02:18:28;;;;;;;130.82;76.30;;;;;;;11.85;76.69;99572.94;4961055;28;20581;-61
2022/12/31 02:22:03;;;;;;;129.38;74.18;;;;;;;11.91;75.86;99582.94;4963106;28;20058;-59
2022/12/31 02:25:41;;;;;;;129.18;71.78;;;;;;;11.89;76.12;99584.13;4942845;29;20135;-58
2022/12/31 02:28:36;;;;;;;124.18;67.13;;;;;;;11.91;76.79;99591.00;4950186;28;20074;-59
2022/12/31 02:31:27;;;;;;;125.82;69.88;;;;;;;12.14;75.98;99597.91;4962068;28;20050;-59
2022/12/31 02:34:35;;;;;;;120.60;67.05;;;;;;;12.08;76.07;99598.72;4988770;28;20047;-59
2022/12/31 02:37:26;;;;;;;122.10;70.57;;;;;;;12.09;76.22;99600.38;4962342;28;20055;-60
2022/12/31 02:40:20;;;;;;;124.15;67.75;;;;;;;12.09;76.10;99601.19;4961862;28;20053;-58
2022/12/31 02:43:02;;;;;;;125.65;71.20;;;;;;;12.08;76.27;99596.03;4963008;28;20055;-59
2022/12/31 02:45:56;;;;;;;136.52;74.88;;;;;;;12.21;75.75;99598.75;4962301;28;20047;-59
2022/12/31 02:48:43;;;;;;;130.18;72.18;;;;;;;11.92;76.83;99600.75;4962385;28;20066;-60
2022/12/31 02:52:00;;;;;;;130.93;71.88;;;;;;;12.21;76.26;99603.28;4962141;28;20065;-59
2022/12/31 02:54:47;;;;;;;115.70;67.05;;;;;;;11.90;76.67;99608.19;4978981;28;20066;-59
2022/12/31 02:57:48;;;;;;;125.22;69.50;;;;;;;12.00;76.99;99607.81;4962747;28;20054;-59
2022/12/31 03:03:43;;;;;;;133.20;73.13;;;;;;;11.83;76.38;99609.97;4992264;28;20062;-59
2022/12/31 03:06:25;;;;;;;132.32;71.32;;;;;;;12.08;76.37;99614.88;4998506;28;20044;-60
2022/12/31 03:09:14;;;;;;;133.05;72.88;;;;;;;12.29;76.23;99609.34;4998190;28;20089;-59
2022/12/31 03:15:05;;;;;;;141.30;73.70;;;;;;;12.43;75.36;99612.06;4996958;28;20134;-65
2022/12/31 03:17:48;;;;;;;135.25;74.13;;;;;;;12.62;75.43;99622.03;5002168;28;20057;-58
2022/12/31 03:26:51;;;;;;;135.35;76.15;;;;;;;12.92;74.59;99637.81;4926725;29;20066;-58
2022/12/31 03:29:33;;;;;;;137.88;78.85;;;;;;;13.28;73.80;99641.97;4944050;29;20510;-58
2022/12/31 03:32:28;;;;;;;134.45;73.70;;;;;;;13.39;72.10;99644.03;4945894;28;20051;-58
2022/12/31 03:35:04;;;;;;;121.75;71.03;;;;;;;13.76;71.11;99640.84;4944872;28;20058;-56
2022/12/31 03:37:53;;;;;;;116.68;67.75;;;;;;;14.12;69.53;99640.31;4946003;29;20142;-58
2022/12/31 03:40:33;;;;;;;126.60;69.38;;;;;;;14.79;68.36;99642.66;4950539;28;20409;-58
2022/12/31 03:43:23;;;;;;;112.57;63.55;;;;;;;15.42;66.78;99647.97;4992954;28;20059;-59
2022/12/31 03:46:05;;;;;;;105.45;61.63;;;;;;;15.97;64.86;99643.69;4945545;29;20047;-58
2022/12/31 03:48:54;;;;;;;105.57;59.38;;;;;;;16.34;63.44;99640.94;4944862;29;20062;-59
2022/12/31 03:51:36;;;;;;;104.22;59.30;;;;;;;16.74;62.09;99643.91;4946436;28;20051;-59
2022/12/31 03:54:25;;;;;;;105.05;60.47;;;;;;;17.07;60.17;99648.00;4986241;28;20055;-59
2022/12/31 03:57:21;;;;;;;115.78;65.40;;;;;;;17.35;59.70;99652.75;4941604;28;20585;-58
2022/12/31 03:59:56;;;;;;;115.80;66.15;;;;;;;17.73;59.86;99656.88;4977447;28;20055;-59
2022/12/31 04:02:47;;;;;;;106.35;62.30;;;;;;;18.12;57.47;99659.09;4971665;28;20055;-59
2022/12/31 04:05:31;;;;;;;106.72;61.47;;;;;;;18.13;57.24;99667.00;4948874;28;20928;-58
2022/12/31 04:08:28;;;;;;;104.43;59.92;;;;;;;17.96;56.47;99669.63;4990282;28;20831;-59
2022/12/31 04:11:03;;;;;;;101.65;58.05;;;;;;;17.87;57.18;99670.25;4961055;28;20051;-60
2022/12/31 04:14:05;;;;;;;93.72;57.72;;;;;;;18.96;55.13;99670.22;4963619;28;20337;-59
2022/12/31 04:17:01;;;;;;;92.78;55.30;;;;;;;18.86;54.10;99670.03;4969152;28;20525;-59
2022/12/31 04:19:49;;;;;;;86.00;51.50;;;;;;;19.35;53.37;99672.19;4947951;28;20059;-59
2022/12/31 04:22:38;;;;;;;90.40;53.45;;;;;;;19.21;53.97;99673.63;4968582;28;20059;-61
2022/12/31 04:25:27;;;;;;;91.82;55.17;;;;;;;19.48;52.24;99677.31;4965128;28;20104;-60
2022/12/31 04:28:09;;;;;;;96.13;55.33;;;;;;;19.13;53.62;99683.00;4940601;28;20055;-60
2022/12/31 04:30:58;;;;;;;88.95;54.60;;;;;;;19.81;54.10;99681.06;4964669;28;20066;-59
2022/12/31 04:33:40;;;;;;;91.82;57.53;;;;;;;19.83;53.10;99689.00;4962590;28;20050;-60
2022/12/31 04:36:29;;;;;;;97.03;57.22;;;;;;;19.87;52.37;99684.69;4964053;28;20155;-59
2022/12/31 04:39:11;;;;;;;83.25;53.28;;;;;;;20.08;50.54;99675.75;4975647;28;20050;-58
2022/12/31 04:42:00;;;;;;;92.88;55.70;;;;;;;19.73;51.44;99666.00;4965018;28;20050;-58
2022/12/31 04:44:42;;;;;;;96.80;56.60;;;;;;;20.50;50.13;99666.97;4963900;28;20165;-59
2022/12/31 04:47:31;;;;;;;88.45;53.00;;;;;;;20.27;51.39;99672.69;4946009;28;20132;-59
2022/12/31 04:50:13;;;;;;;88.50;53.50;;;;;;;20.09;51.36;99674.66;4966631;28;20101;-59
2022/12/31 04:53:02;;;;;;;92.28;55.17;;;;;;;19.77;52.44;99674.47;4964564;28;20061;-59
2022/12/31 04:55:44;;;;;;;90.07;55.85;;;;;;;19.78;52.30;99680.78;4964063;28;20059;-58
2022/12/31 04:58:34;;;;;;;87.78;52.47;;;;;;;19.50;51.54;99685.22;4964141;28;20158;-59
2022/12/31 05:01:17;;;;;;;90.27;52.97;;;;;;;19.16;53.37;99685.22;4958757;28;20050;-59
2022/12/31 05:04:06;;;;;;;85.95;51.85;;;;;;;18.80;53.56;99681.88;4960399;28;20081;-58
2022/12/31 05:06:48;;;;;;;98.57;52.67;;;;;;;18.88;54.02;99677.97;4962983;28;20046;-59
2022/12/31 05:09:37;;;;;;;90.38;54.63;;;;;;;18.83;53.93;99675.97;4963472;28;20058;-59
2022/12/31 05:12:26;;;;;;;94.55;54.20;;;;;;;19.07;54.28;99675.81;4982689;28;20133;-58
2022/12/31 05:15:08;;;;;;;85.95;51.47;;;;;;;19.20;53.83;99680.94;4962410;28;20076;-59
2022/12/31 05:18:03;;;;;;;88.55;49.78;;;;;;;19.26;54.00;99679.97;5005285;28;20040;-60
2022/12/31 05:20:46;;;;;;;85.43;48.50;;;;;;;18.90;53.37;99684.81;5044847;28;20044;-62
2022/12/31 05:23:35;;;;;;;84.95;48.40;;;;;;;18.72;53.77;99684.97;5054028;28;20044;-59
2022/12/31 05:26:17;;;;;;;75.22;45.38;;;;;;;19.12;53.80;99684.88;5042302;28;20040;-60
2022/12/31 05:29:06;;;;;;;67.55;43.95;;;;;;;19.44;54.49;99686.22;5038678;28;20044;-60
2022/12/31 05:31:48;;;;;;;71.38;41.92;;;;;;;18.75;53.51;99687.22;5029569;28;20044;-60
2022/12/31 05:34:37;;;;;;;73.95;41.10;;;;;;;19.25;52.86;99678.31;4961938;28;20053;-60
2022/12/31 05:37:35;;;;;;;80.53;46.10;;;;;;;19.18;52.69;99674.91;4965838;28;20854;-60
2022/12/31 05:40:11;;;;;;;77.75;44.90;;;;;;;19.30;53.23;99683.03;4980740;28;20044;-59
2022/12/31 05:43:06;;;;;;;64.93;41.08;;;;;;;19.11;51.90;99677.00;4946637;28;20053;-59
2022/12/31 05:45:41;;;;;;;71.57;44.55;;;;;;;19.59;51.49;99672.03;4945749;28;20050;-60
2022/12/31 05:48:30;;;;;;;63.05;39.97;;;;;;;19.80;51.58;99674.00;4977967;28;20419;-59
2022/12/31 05:51:13;;;;;;;67.20;41.08;;;;;;;19.54;51.47;99672.75;4963816;28;20105;-57
2022/12/31 05:54:08;;;;;;;68.53;41.55;;;;;;;19.94;50.83;99679.91;4957041;28;20058;-60
2022/12/31 05:56:43;;;;;;;58.22;38.38;;;;;;;20.28;50.46;99666.16;4944120;29;20160;-62
2022/12/31 05:59:32;;;;;;;58.92;34.58;;;;;;;20.90;48.10;99665.75;4956282;28;20346;-60
2022/12/31 06:02:15;;;;;;;52.80;32.53;;;;;;;20.96;47.14;99652.16;4965473;28;20047;-63
2022/12/31 06:05:04;;;;;;;51.25;32.50;;;;;;;21.01;47.32;99654.94;4964594;28;20058;-62
2022/12/31 06:07:46;;;;;;;58.97;33.28;;;;;;;20.20;48.04;99647.53;4990804;28;20066;-61
2022/12/31 06:10:42;;;;;;;56.25;34.33;;;;;;;19.99;48.38;99650.00;4990753;28;20061;-62
2022/12/31 06:13:17;;;;;;;66.13;35.95;;;;;;;20.61;48.45;99651.53;4997727;28;20058;-64
2022/12/31 06:16:07;;;;;;;53.13;32.17;;;;;;;20.23;48.92;99647.00;4972266;28;20062;-61
2022/12/31 06:18:52;;;;;;;52.25;32.72;;;;;;;20.69;47.97;99642.06;4971396;28;20042;-61
2022/12/31 06:21:47;;;;;;;57.63;34.35;;;;;;;20.83;48.40;99637.03;4958403;28;20054;-61
2022/12/31 06:24:37;;;;;;;54.58;32.35;;;;;;;21.33;46.13;99630.34;4972006;28;20059;-61
2022/12/31 06:27:26;;;;;;;49.00;30.52;;;;;;;21.31;46.09;99621.59;4964707;28;20063;-62
2022/12/31 06:30:22;;;;;;;53.53;30.00;;;;;;;20.98;45.82;99623.53;4943672;28;20090;-60
2022/12/31 06:32:57;;;;;;;45.70;29.38;;;;;;;20.64;46.53;99620.22;4960710;28;20057;-60
2022/12/31 06:35:53;;;;;;;54.50;32.15;;;;;;;21.07;47.13;99626.59;4963222;28;20402;-62
2022/12/31 06:38:31;;;;;;;56.60;34.88;;;;;;;21.33;47.53;99618.59;4945520;28;20522;-61
2022/12/31 06:41:27;;;;;;;64.63;37.28;;;;;;;21.04;47.62;99613.47;4961398;28;20051;-62
2022/12/31 06:44:02;;;;;;;65.68;39.78;;;;;;;21.06;47.40;99611.31;4984784;28;20041;-63
2022/12/31 06:46:57;;;;;;;59.22;35.97;;;;;;;21.09;48.75;99600.69;4959844;28;20051;-63
2022/12/31 06:49:33;;;;;;;69.65;39.35;;;;;;;21.30;47.10;99611.75;4961952;28;20058;-63
2022/12/31 06:52:29;;;;;;;67.37;37.50;;;;;;;21.02;46.91;99596.56;4977347;28;20553;-62
2022/12/31 06:55:05;;;;;;;52.90;32.95;;;;;;;21.18;47.48;99590.09;4962298;28;20430;-61
2022/12/31 06:58:01;;;;;;;62.38;35.83;;;;;;;21.11;48.18;99584.03;4976298;28;20445;-63
2022/12/31 07:00:38;;;;;;;63.90;36.60;;;;;;;21.35;46.82;99581.75;4963213;28;20043;-61
2022/12/31 07:03:42;;;;;;;64.82;38.15;;;;;;;21.44;46.75;99576.66;5042650;28;20098;-62
2022/12/31 07:06:45;;;;;;;62.53;35.80;;;;;;;21.07;47.15;99578.28;4992891;28;20074;-64
2022/12/31 07:09:53;;;;;;;68.13;36.50;;;;;;;21.31;47.71;99567.00;4966580;28;20431;-62
2022/12/31 07:13:15;;;;;;;71.57;38.25;;;;;;;20.85;47.71;99569.41;4966502;28;20046;-63
2022/12/31 07:16:23;;;;;;;68.80;39.47;;;;;;;21.30;47.57;99554.41;4972874;28;20051;-65
2022/12/31 07:19:24;;;;;;;68.90;39.50;;;;;;;21.48;47.33;99562.19;4987699;28;20055;-62
2022/12/31 07:22:22;;;;;;;76.75;42.60;;;;;;;21.03;47.27;99551.78;4944595;28;20510;-61
2022/12/31 07:24:58;;;;;;;78.45;44.75;;;;;;;21.30;49.17;99555.25;4978613;28;20051;-61
2022/12/31 07:27:56;;;;;;;76.30;43.33;;;;;;;21.35;48.54;99548.19;4984942;28;20051;-60
2022/12/31 07:30:34;;;;;;;66.68;41.92;;;;;;;21.47;48.15;99535.97;4944378;28;20043;-61
2022/12/31 07:33:50;;;;;;;70.00;40.88;;;;;;;21.39;48.68;99532.91;5006427;28;20373;-59
2022/12/31 07:36:59;;;;;;;71.20;41.17;;;;;;;21.50;47.73;99532.72;4976206;28;20055;-61
2022/12/31 07:39:59;;;;;;;80.28;46.42;;;;;;;21.26;48.67;99521.34;4942623;29;20050;-61
2022/12/31 07:42:56;;;;;;;73.10;42.35;;;;;;;21.63;49.05;99509.56;4943617;28;20047;-59
2022/12/31 07:45:45;;;;;;;69.30;44.05;;;;;;;21.59;48.61;99505.72;4941798;28;20130;-60
2022/12/31 07:48:35;;;;;;;78.13;46.90;;;;;;;21.28;49.04;99497.34;4953892;28;20064;-61
2022/12/31 07:51:17;;;;;;;80.50;45.60;;;;;;;21.54;48.21;99492.03;4970320;28;20062;-60
2022/12/31 07:54:06;;;;;;;79.95;47.13;;;;;;;21.47;48.79;99488.72;4941989;28;20056;-60
2022/12/31 07:56:54;;;;;;;70.00;43.22;;;;;;;21.29;49.78;99493.53;4996730;28;20046;-61
2022/12/31 07:59:49;;;;;;;64.43;42.90;;;;;;;21.76;49.20;99480.91;4939003;28;20112;-61
2022/12/31 08:02:58;;;;;;;67.30;43.35;;;;;;;21.73;48.49;99478.72;4971640;28;20057;-59
2022/12/31 08:06:15;;;;;;;69.80;42.10;;;;;;;21.36;48.49;99465.97;4987915;28;20490;-61
2022/12/31 08:09:07;;;;;;;65.95;40.17;;;;;;;21.48;49.10;99471.25;4988526;28;20128;-59
2022/12/31 08:12:03;;;;;;;73.50;41.47;;;;;;;21.04;49.66;99463.38;4986750;28;20047;-61
2022/12/31 08:14:47;;;;;;;66.00;39.55;;;;;;;21.50;49.39;99450.78;4962220;28;20069;-61
2022/12/31 08:17:36;;;;;;;64.32;40.13;;;;;;;21.69;48.34;99448.38;4954127;28;20047;-62
2022/12/31 08:20:20;;;;;;;69.53;40.90;;;;;;;21.92;48.79;99457.19;4955664;28;20142;-60
2022/12/31 08:23:34;;;;;;;61.95;38.80;;;;;;;21.87;48.81;99444.31;4963764;28;20048;-59
2022/12/31 08:26:42;;;;;;;72.82;41.20;;;;;;;21.69;48.65;99437.44;4961518;28;20088;-57
2022/12/31 08:30:06;;;;;;;75.43;42.03;;;;;;;21.94;47.85;99422.19;4972975;28;20138;-58
2022/12/31 08:32:57;;;;;;;68.53;41.72;;;;;;;21.62;48.53;99425.97;4947474;28;20497;-61
2022/12/31 08:36:06;;;;;;;64.30;40.65;;;;;;;21.37;50.05;99423.13;5000855;28;20051;-60
2022/12/31 08:39:16;;;;;;;68.22;37.35;;;;;;;21.34;47.83;99420.91;5020605;28;20061;-59
2022/12/31 08:42:08;;;;;;;43.60;26.55;;;;;;;21.08;45.67;99426.28;4999087;28;20416;-60
2022/12/31 08:45:04;;;;;;;48.75;25.80;;;;;;;21.38;45.27;99420.13;4993887;28;20046;-60
2022/12/31 08:48:10;;;;;;;38.35;22.13;;;;;;;21.45;45.44;99414.44;4965025;28;20085;-61
2022/12/31 08:50:53;;;;;;;35.63;19.73;;;;;;;21.68;44.48;99410.41;4957108;28;20061;-60
2022/12/31 08:53:43;;;;;;;32.67;17.75;;;;;;;21.45;43.89;99404.34;4989824;28;20504;-58
2022/12/31 08:56:33;;;;;;;28.65;15.80;;;;;;;21.42;44.06;99396.66;4969634;28;20479;-60
2022/12/31 08:59:51;;;;;;;22.05;14.05;;;;;;;21.55;43.76;99389.06;4983740;28;20050;-60
2022/12/31 09:03:01;;;;;;;35.03;15.52;;;;;;;21.55;44.00;99389.06;4990724;28;20050;-61
2022/12/31 09:05:55;;;;;;;21.38;11.38;;;;;;;21.19;44.17;99389.75;4962619;28;20141;-61
2022/12/31 09:08:54;;;;;;;16.42;11.75;;;;;;;21.24;45.00;99391.69;4973522;28;20587;-61
2022/12/31 09:12:02;;;;;;;18.90;11.52;;;;;;;21.12;45.05;99391.91;4962428;28;20617;-60
2022/12/31 09:15:06;;;;;;;19.75;12.35;;;;;;;21.12;44.63;99378.28;4992320;28;20166;-58
2022/12/31 09:17:53;;;;;;;21.38;12.23;;;;;;;21.21;44.70;99382.13;4977316;28;20043;-60
2022/12/31 09:20:49;;;;;;;23.83;12.77;;;;;;;20.91;45.06;99378.16;4985772;28;20051;-60
2022/12/31 09:23:24;;;;;;;15.98;10.43;;;;;;;20.89;44.72;99374.06;4995017;28;20112;-60
2022/12/31 09:26:43;;;;;;;19.50;10.80;;;;;;;21.62;44.46;99365.06;4989590;28;20058;-59
2022/12/31 09:29:55;;;;;;;17.42;10.15;;;;;;;21.74;43.43;99362.88;4970950;28;20136;-61
2022/12/31 09:33:24;;;;;;;14.98;9.90;;;;;;;21.14;43.69;99365.16;4984764;28;20042;-59
2022/12/31 09:36:14;;;;;;;14.13;8.93;;;;;;;20.66;43.38;99364.41;4980675;28;20055;-59
2022/12/31 09:39:24;;;;;;;12.60;8.88;;;;;;;20.96;43.23;99360.19;4982348;28;20106;-59
2022/12/31 09:42:25;;;;;;;11.25;8.32;;;;;;;21.27;42.85;99353.75;4983881;28;20062;-60
2022/12/31 09:46:05;;;;;;;17.95;8.73;;;;;;;21.20;43.42;99355.09;4972236;28;20046;-60
2022/12/31 09:48:50;;;;;;;16.33;8.77;;;;;;;21.35;43.55;99349.66;4946093;28;20442;-59
2022/12/31 09:51:51;;;;;;;18.92;9.93;;;;;;;21.25;43.24;99353.19;4972411;28;20062;-58
2022/12/31 09:54:51;;;;;;;16.48;10.43;;;;;;;21.66;44.01;99347.84;4957705;28;20131;-62
2022/12/31 09:57:48;;;;;;;21.83;10.80;;;;;;;21.58;43.53;99350.31;4968828;28;20066;-59
2022/12/31 10:01:08;;;;;;;16.20;9.90;;;;;;;21.28;43.71;99339.00;4975314;28;20061;-60
2022/12/31 10:04:03;;;;;;;17.77;9.52;;;;;;;21.18;44.62;99349.91;4983361;28;20051;-61
2022/12/31 10:07:21;;;;;;;15.43;9.32;;;;;;;20.98;43.46;99339.75;4971902;28;20055;-59
2022/12/31 10:10:16;;;;;;;16.67;9.27;;;;;;;21.18;43.54;99335.44;4949109;28;20058;-58
2022/12/31 10:13:26;;;;;;;19.85;9.15;;;;;;;21.34;43.86;99341.75;4939733;28;20061;-60
2022/12/31 10:16:44;;;;;;;13.27;8.07;;;;;;;21.13;42.07;99344.41;4953875;28;20050;-61
2022/12/31 10:20:13;;;;;;;16.88;8.20;;;;;;;21.18;42.08;99344.44;4952867;28;20138;-59
2022/12/31 10:23:26;;;;;;;14.40;8.20;;;;;;;21.33;40.88;99340.13;4934679;28;20176;-59
2022/12/31 10:26:52;;;;;;;16.30;8.88;;;;;;;20.93;41.47;99336.97;4946335;28;20043;-58
2022/12/31 10:29:45;;;;;;;17.67;8.80;;;;;;;21.23;41.82;99332.72;4934903;28;20137;-59
2022/12/31 10:33:02;;;;;;;13.70;8.65;;;;;;;20.91;42.24;99334.50;4937370;28;20414;-60
2022/12/31 10:35:52;;;;;;;17.23;9.13;;;;;;;20.90;41.50;99342.97;5025797;28;20146;-59
2022/12/31 10:39:30;;;;;;;17.20;9.65;;;;;;;21.08;42.46;99333.50;5033456;28;20140;-59
2022/12/31 10:42:22;;;;;;;14.68;9.55;;;;;;;21.11;42.83;99330.22;4997515;28;20477;-59
2022/12/31 10:45:40;;;;;;;12.20;7.82;;;;;;;21.28;43.34;99322.63;4941802;28;20083;-60
2022/12/31 10:49:00;;;;;;;29.20;12.40;;;;;;;20.89;44.00;99325.78;5030453;28;20053;-59
2022/12/31 10:52:28;;;;;;;28.27;14.55;;;;;;;20.80;44.25;99327.38;5026891;28;20041;-59
2022/12/31 10:55:39;;;;;;;23.13;13.43;;;;;;;20.89;44.07;99322.25;5019016;28;20056;-59
2022/12/31 10:58:55;;;;;;;34.80;16.40;;;;;;;20.96;44.65;99330.16;5031102;28;20056;-59
2022/12/31 11:01:33;;;;;;;25.30;12.85;;;;;;;20.88;44.97;99339.69;5031567;28;20106;-58
2022/12/31 11:04:59;;;;;;;28.83;14.50;;;;;;;20.68;45.69;99334.97;5033994;28;20044;-59
2022/12/31 11:08:01;;;;;;;30.77;14.15;;;;;;;20.60;46.48;99332.72;5035018;28;20689;-59
2022/12/31 11:10:59;;;;;;;35.10;14.63;;;;;;;20.44;46.38;99335.34;5033862;28;20143;-59
2022/12/31 11:14:22;;;;;;;26.73;14.55;;;;;;;20.64;46.69;99329.22;5033573;28;20123;-59
2022/12/31 11:17:29;;;;;;;23.65;12.45;;;;;;;20.50;46.55;99328.84;5016064;28;20049;-59
2022/12/31 11:20:51;;;;;;;28.70;13.40;;;;;;;20.61;45.87;99328.94;5010314;28;20052;-59
2022/12/31 11:24:21;;;;;;;19.65;10.20;;;;;;;20.49;47.12;99323.66;4953059;28;20055;-60
2022/12/31 11:27:45;;;;;;;19.52;10.05;;;;;;;20.38;47.65;99330.13;4949171;28;20055;-59
2022/12/31 11:30:40;;;;;;;20.77;11.18;;;;;;;20.12;47.77;99319.88;4942907;28;20053;-60
2022/12/31 11:33:58;;;;;;;23.13;11.52;;;;;;;20.20;48.59;99324.03;4943451;28;20055;-60
2022/12/31 11:37:05;;;;;;;23.45;12.43;;;;;;;20.16;48.28;99317.47;4944691;28;20047;-59
2022/12/31 11:40:05;;;;;;;30.65;16.27;;;;;;;20.05;49.26;99319.28;4945271;28;20054;-59
2022/12/31 11:43:06;;;;;;;38.13;19.08;;;;;;;19.96;50.10;99312.69;4952655;28;20055;-60
2022/12/31 11:46:09;;;;;;;48.78;22.50;;;;;;;19.85;50.67;99316.41;4952560;28;20662;-59
2022/12/31 11:49:19;;;;;;;51.72;23.33;;;;;;;19.66;53.39;99315.94;4946609;28;20055;-59
2022/12/31 11:52:09;;;;;;;44.28;21.98;;;;;;;19.46;53.17;99308.41;4947488;28;20136;-59
2022/12/31 11:55:36;;;;;;;42.22;20.75;;;;;;;19.27;53.71;99306.03;4948751;28;20140;-60
2022/12/31 11:58:27;;;;;;;45.72;21.17;;;;;;;19.06;55.65;99304.19;4954624;28;20383;-59
2022/12/31 12:01:26;;;;;;;47.03;22.50;;;;;;;18.91;55.88;99300.22;4953895;28;20051;-59
2022/12/31 12:04:10;;;;;;;43.72;20.40;;;;;;;18.82;56.57;99306.34;4954514;28;20042;-58
2022/12/31 12:06:59;;;;;;;45.85;21.60;;;;;;;18.66;57.13;99306.13;4960337;28;20109;-60
2022/12/31 12:09:43;;;;;;;41.97;22.52;;;;;;;18.59;57.63;99310.94;4950977;28;20051;-59
2022/12/31 12:12:32;;;;;;;39.53;20.27;;;;;;;18.34;57.72;99311.41;4959810;28;20568;-59
2022/12/31 12:15:25;;;;;;;45.63;21.70;;;;;;;18.37;58.17;99308.19;4964085;28;20046;-58
2022/12/31 12:18:43;;;;;;;44.33;19.75;;;;;;;18.34;58.15;99314.13;4960791;28;20050;-59
2022/12/31 12:21:32;;;;;;;38.35;19.27;;;;;;;18.23;59.16;99315.06;5017102;28;20044;-60
2022/12/31 12:24:28;;;;;;;38.65;17.75;;;;;;;18.16;59.55;99318.78;5044787;28;20045;-61
2022/12/31 12:27:30;;;;;;;36.30;18.38;;;;;;;18.19;59.20;99323.72;5036438;28;20405;-60
2022/12/31 12:30:22;;;;;;;;;;;;;;;18.19;58.34;99323.72;5038058;28;20533;-58
2022/12/31 12:33:11;;;;;;;33.90;16.65;;;;;;;17.93;59.15;99318.97;5033856;28;19997;-59
2022/12/31 12:35:53;;;;;;;33.47;18.10;;;;;;;18.03;59.96;99319.09;5044930;28;20088;-58
2022/12/31 12:38:43;;;;;;;37.67;18.10;;;;;;;17.94;59.75;99320.59;5041666;28;20048;-59
2022/12/31 12:41:26;;;;;;;39.88;18.83;;;;;;;17.74;60.54;99321.06;5040503;28;20063;-59
2022/12/31 12:44:21;;;;;;;41.92;19.23;;;;;;;17.73;60.72;99313.97;5045246;28;20084;-59
2022/12/31 12:47:07;;;;;;;47.63;24.58;;;;;;;17.67;61.17;99323.91;5041462;28;20049;-59
2022/12/31 12:50:00;;;;;;;55.43;25.17;;;;;;;17.53;62.13;99318.00;5036823;28;20056;-59
2022/12/31 12:53:03;;;;;;;42.70;21.95;;;;;;;17.52;61.98;99312.81;5031613;28;20056;-59
2022/12/31 12:56:16;;;;;;;42.42;22.00;;;;;;;17.46;61.96;99319.22;5043799;28;20136;-59
2022/12/31 12:59:34;;;;;;;40.85;19.77;;;;;;;17.40;62.96;99329.97;5041743;28;20057;-59
2022/12/31 13:02:30;;;;;;;31.25;19.05;;;;;;;17.30;62.56;99326.25;5038158;28;20048;-59
2022/12/31 13:05:29;;;;;;;40.08;21.77;;;;;;;17.27;63.17;99330.25;5024420;28;20055;-60
2022/12/31 13:08:32;;;;;;;42.40;20.85;;;;;;;17.18;63.44;99331.75;5034076;28;20083;-60
2022/12/31 13:11:28;;;;;;;40.13;21.58;;;;;;;17.16;63.76;99325.75;4688377;28;10000608;-60
2022/12/31 13:14:35;;;;;;;42.40;22.75;;;;;;;17.09;64.27;99328.59;4689233;28;10001143;-56
2022/12/31 13:17:32;;;;;;;46.53;23.83;;;;;;;16.94;64.33;99326.38;4686367;28;10000103;-56
2022/12/31 13:20:44;;;;;;;49.42;23.77;;;;;;;17.04;64.21;99325.75;5033283;28;20055;-59
2022/12/31 13:23:46;;;;;;;45.15;24.23;;;;;;;17.01;64.66;99335.22;5012121;28;20070;-59
2022/12/31 13:27:01;;;;;;;43.55;24.52;;;;;;;17.10;64.97;99332.94;4959414;28;20794;-59
2022/12/31 13:29:47;;;;;;;59.42;24.83;;;;;;;17.09;64.70;99344.03;5000316;28;20064;-60
2022/12/31 13:32:49;;;;;;;51.03;27.58;;;;;;;17.08;64.54;99339.66;4984788;28;20060;-59
2022/12/31 13:36:02;;;;;;;58.47;28.30;;;;;;;17.18;64.39;99343.41;5002589;28;20541;-60